sensor_id;sensor_type;location;lat;lon;timestamp;pressure;altitude;pressure_sealevel;temperature;humidity
25722;BME280;13578;53.450;15.496;2023-04-27T00:01:48;99823.44;;;4.00;100.00
25722;BME280;13578;53.450;15.496;2023-04-27T00:04:49;99813.63;;;3.83;100.00
25722;BME280;13578;53.450;15.496;2023-04-27T00:07:50;99827.69;;;3.90;100.00
25722;BME280;13578;53.450;15.496;2023-04-27T00:10:51;99825.06;;;3.74;100.00
25722;BME280;13578;53.450;15.496;2023-04-27T00:13:51;99819.53;;;3.75;100.00
25722;BME280;13578;53.450;15.496;2023-04-27T00:16:52;99821.84;;;3.81;100.00
25722;BME280;13578;53.450;15.496;2023-04-27T00:19:53;99824.56;;;3.81;100.00
25722;BME280;13578;53.450;15.496;2023-04-27T00:22:53;99823.22;;;3.74;100.00
25722;BME280;13578;53.450;15.496;2023-04-27T00:25:54;99819.63;;;3.74;100.00
25722;BME280;13578;53.450;15.496;2023-04-27T00:28:55;99812.31;;;3.60;100.00
25722;BME280;13578;53.450;15.496;2023-04-27T00:31:56;99823.19;;;3.60;100.00
25722;BME280;13578;53.450;15.496;2023-04-27T00:34:56;99815.22;;;3.57;100.00
25722;BME280;13578;53.450;15.496;2023-04-27T00:37:57;99820.75;;;3.55;100.00
25722;BME280;13578;53.450;15.496;2023-04-27T00:41:05;99814.72;;;3.50;100.00
25722;BME280;13578;53.450;15.496;2023-04-27T00:44:06;99817.72;;;3.45;100.00
25722;BME280;13578;53.450;15.496;2023-04-27T00:47:06;99820.69;;;3.41;100.00
25722;BME280;13578;53.450;15.496;2023-04-27T00:50:08;99823.78;;;3.34;100.00
25722;BME280;13578;53.450;15.496;2023-04-27T00:53:09;99832.88;;;3.33;100.00
25722;BME280;13578;53.450;15.496;2023-04-27T00:56:11;99814.84;;;3.32;100.00
25722;BME280;13578;53.450;15.496;2023-04-27T00:59:12;99820.97;;;3.36;100.00
25722;BME280;13578;53.450;15.496;2023-04-27T01:02:13;99827.28;;;3.37;100.00
25722;BME280;13578;53.450;15.496;2023-04-27T01:05:13;99823.78;;;3.34;100.00
25722;BME280;13578;53.450;15.496;2023-04-27T01:08:14;99835.06;;;3.27;100.00
25722;BME280;13578;53.450;15.496;2023-04-27T01:11:15;99821.19;;;3.17;100.00
25722;BME280;13578;53.450;15.496;2023-04-27T01:14:15;99828.91;;;3.09;100.00
25722;BME280;13578;53.450;15.496;2023-04-27T01:17:16;99822.44;;;2.95;100.00
25722;BME280;13578;53.450;15.496;2023-04-27T01:20:17;99825.28;;;2.78;100.00
25722;BME280;13578;53.450;15.496;2023-04-27T01:23:19;99835.06;;;2.64;100.00
25722;BME280;13578;53.450;15.496;2023-04-27T01:26:20;99832.00;;;2.54;100.00
25722;BME280;13578;53.450;15.496;2023-04-27T01:29:21;99832.09;;;2.53;100.00
25722;BME280;13578;53.450;15.496;2023-04-27T01:32:22;99831.38;;;2.33;100.00
25722;BME280;13578;53.450;15.496;2023-04-27T01:35:23;99840.25;;;2.35;100.00
25722;BME280;13578;53.450;15.496;2023-04-27T01:38:23;99828.13;;;2.27;100.00
25722;BME280;13578;53.450;15.496;2023-04-27T01:41:24;99828.38;;;2.22;100.00
25722;BME280;13578;53.450;15.496;2023-04-27T01:44:25;99843.75;;;2.21;100.00
25722;BME280;13578;53.450;15.496;2023-04-27T01:47:26;99839.72;;;2.13;100.00
25722;BME280;13578;53.450;15.496;2023-04-27T01:50:27;99844.97;;;2.16;100.00
25722;BME280;13578;53.450;15.496;2023-04-27T01:53:27;99841.53;;;2.12;100.00
25722;BME280;13578;53.450;15.496;2023-04-27T01:56:28;99847.38;;;2.04;100.00
25722;BME280;13578;53.450;15.496;2023-04-27T01:59:28;99840.38;;;2.00;100.00
25722;BME280;13578;53.450;15.496;2023-04-27T02:02:29;99835.91;;;1.99;100.00
25722;BME280;13578;53.450;15.496;2023-04-27T02:05:30;99850.09;;;2.04;100.00
25722;BME280;13578;53.450;15.496;2023-04-27T02:08:30;99839.66;;;1.97;100.00
25722;BME280;13578;53.450;15.496;2023-04-27T02:11:31;99837.84;;;1.97;100.00
25722;BME280;13578;53.450;15.496;2023-04-27T02:14:32;99839.38;;;1.85;100.00
25722;BME280;13578;53.450;15.496;2023-04-27T02:17:35;99847.66;;;1.82;100.00
25722;BME280;13578;53.450;15.496;2023-04-27T02:20:37;99857.94;;;1.76;100.00
25722;BME280;13578;53.450;15.496;2023-04-27T02:23:38;99850.78;;;1.74;100.00
25722;BME280;13578;53.450;15.496;2023-04-27T02:26:38;99853.94;;;1.65;100.00
25722;BME280;13578;53.450;15.496;2023-04-27T02:29:39;99850.63;;;1.60;100.00
25722;BME280;13578;53.450;15.496;2023-04-27T02:32:40;99843.78;;;1.53;100.00
25722;BME280;13578;53.450;15.496;2023-04-27T02:35:41;99850.28;;;1.49;100.00
25722;BME280;13578;53.450;15.496;2023-04-27T02:38:41;99851.41;;;1.45;100.00
25722;BME280;13578;53.450;15.496;2023-04-27T02:41:42;99852.38;;;1.43;100.00
25722;BME280;13578;53.450;15.496;2023-04-27T02:44:43;99865.03;;;1.43;100.00
25722;BME280;13578;53.450;15.496;2023-04-27T02:47:43;99850.22;;;1.33;100.00
25722;BME280;13578;53.450;15.496;2023-04-27T02:50:44;99860.22;;;1.31;100.00
25722;BME280;13578;53.450;15.496;2023-04-27T02:53:45;99868.91;;;1.37;100.00
25722;BME280;13578;53.450;15.496;2023-04-27T02:56:46;99867.25;;;1.35;100.00
25722;BME280;13578;53.450;15.496;2023-04-27T02:59:46;99866.56;;;1.30;100.00
25722;BME280;13578;53.450;15.496;2023-04-27T03:02:47;99856.97;;;1.24;100.00
25722;BME280;13578;53.450;15.496;2023-04-27T03:05:47;99857.69;;;1.27;100.00
25722;BME280;13578;53.450;15.496;2023-04-27T03:08:48;99876.25;;;1.53;100.00
25722;BME280;13578;53.450;15.496;2023-04-27T03:11:49;99868.59;;;1.61;100.00
25722;BME280;13578;53.450;15.496;2023-04-27T03:14:50;99861.91;;;1.68;100.00
25722;BME280;13578;53.450;15.496;2023-04-27T03:17:50;99865.97;;;1.77;100.00
25722;BME280;13578;53.450;15.496;2023-04-27T03:20:51;99858.00;;;1.74;100.00
25722;BME280;13578;53.450;15.496;2023-04-27T03:23:52;99854.44;;;1.73;100.00
25722;BME280;13578;53.450;15.496;2023-04-27T03:26:52;99872.09;;;1.81;100.00
25722;BME280;13578;53.450;15.496;2023-04-27T03:29:53;99875.03;;;1.76;100.00
25722;BME280;13578;53.450;15.496;2023-04-27T03:32:53;99861.84;;;1.70;100.00
25722;BME280;13578;53.450;15.496;2023-04-27T03:35:56;99878.53;;;1.78;100.00
25722;BME280;13578;53.450;15.496;2023-04-27T03:38:57;99863.63;;;1.69;100.00
25722;BME280;13578;53.450;15.496;2023-04-27T03:41:57;99880.31;;;1.79;100.00
25722;BME280;13578;53.450;15.496;2023-04-27T03:44:58;99884.00;;;1.77;100.00
25722;BME280;13578;53.450;15.496;2023-04-27T03:47:59;99889.13;;;1.83;100.00
25722;BME280;13578;53.450;15.496;2023-04-27T03:51:00;99878.53;;;1.78;100.00
25722;BME280;13578;53.450;15.496;2023-04-27T03:54:01;99882.69;;;1.85;100.00
25722;BME280;13578;53.450;15.496;2023-04-27T03:57:01;99880.59;;;1.90;100.00
25722;BME280;13578;53.450;15.496;2023-04-27T04:00:04;99890.28;;;2.12;100.00
25722;BME280;13578;53.450;15.496;2023-04-27T04:03:10;99887.81;;;2.41;100.00
25722;BME280;13578;53.450;15.496;2023-04-27T04:06:11;99896.41;;;2.65;100.00
25722;BME280;13578;53.450;15.496;2023-04-27T04:09:11;99910.34;;;2.91;100.00
25722;BME280;13578;53.450;15.496;2023-04-27T04:12:12;99912.00;;;2.94;100.00
25722;BME280;13578;53.450;15.496;2023-04-27T04:15:13;99919.19;;;2.95;100.00
25722;BME280;13578;53.450;15.496;2023-04-27T04:18:13;99924.63;;;2.79;100.00
25722;BME280;13578;53.450;15.496;2023-04-27T04:21:14;99915.22;;;2.68;100.00
25722;BME280;13578;53.450;15.496;2023-04-27T04:24:15;99932.44;;;2.67;100.00
25722;BME280;13578;53.450;15.496;2023-04-27T04:27:16;99934.19;;;2.68;100.00
25722;BME280;13578;53.450;15.496;2023-04-27T04:30:16;99928.31;;;2.60;100.00
25722;BME280;13578;53.450;15.496;2023-04-27T04:33:17;99936.31;;;2.63;100.00
25722;BME280;13578;53.450;15.496;2023-04-27T04:36:18;99915.13;;;2.54;100.00
25722;BME280;13578;53.450;15.496;2023-04-27T04:39:18;99942.00;;;2.75;100.00
25722;BME280;13578;53.450;15.496;2023-04-27T04:42:22;99931.94;;;2.77;100.00
25722;BME280;13578;53.450;15.496;2023-04-27T04:45:23;99951.03;;;2.91;100.00
25722;BME280;13578;53.450;15.496;2023-04-27T04:48:23;99950.13;;;2.91;100.00
25722;BME280;13578;53.450;15.496;2023-04-27T04:51:24;99949.97;;;2.94;100.00
25722;BME280;13578;53.450;15.496;2023-04-27T04:54:25;99956.09;;;2.97;100.00
25722;BME280;13578;53.450;15.496;2023-04-27T04:57:27;99951.13;;;3.06;100.00
25722;BME280;13578;53.450;15.496;2023-04-27T05:00:27;99944.47;;;3.11;100.00
25722;BME280;13578;53.450;15.496;2023-04-27T05:03:28;99961.53;;;3.29;100.00
25722;BME280;13578;53.450;15.496;2023-04-27T05:06:29;99957.50;;;3.37;100.00
25722;BME280;13578;53.450;15.496;2023-04-27T05:09:31;99960.72;;;3.43;100.00
25722;BME280;13578;53.450;15.496;2023-04-27T05:12:31;99966.16;;;3.59;100.00
25722;BME280;13578;53.450;15.496;2023-04-27T05:15:32;99965.16;;;3.60;100.00
25722;BME280;13578;53.450;15.496;2023-04-27T05:18:33;99954.78;;;3.53;100.00
25722;BME280;13578;53.450;15.496;2023-04-27T05:21:34;99972.88;;;3.68;100.00
25722;BME280;13578;53.450;15.496;2023-04-27T05:24:35;99972.69;;;3.71;100.00
25722;BME280;13578;53.450;15.496;2023-04-27T05:27:35;99969.34;;;3.82;100.00
25722;BME280;13578;53.450;15.496;2023-04-27T05:30:36;99978.81;;;3.75;100.00
25722;BME280;13578;53.450;15.496;2023-04-27T05:33:37;99967.94;;;3.75;100.00
25722;BME280;13578;53.450;15.496;2023-04-27T05:36:38;99971.88;;;3.85;100.00
25722;BME280;13578;53.450;15.496;2023-04-27T05:39:38;99976.56;;;3.97;100.00
25722;BME280;13578;53.450;15.496;2023-04-27T05:42:39;99973.56;;;4.02;100.00
25722;BME280;13578;53.450;15.496;2023-04-27T05:45:40;99973.84;;;3.97;100.00
25722;BME280;13578;53.450;15.496;2023-04-27T05:48:41;99966.91;;;4.08;100.00
25722;BME280;13578;53.450;15.496;2023-04-27T05:51:41;99964.28;;;4.06;100.00
25722;BME280;13578;53.450;15.496;2023-04-27T05:54:46;99982.06;;;4.26;100.00
25722;BME280;13578;53.450;15.496;2023-04-27T05:57:47;99962.19;;;4.26;100.00
25722;BME280;13578;53.450;15.496;2023-04-27T06:00:47;99977.31;;;4.30;100.00
25722;BME280;13578;53.450;15.496;2023-04-27T06:03:48;99975.28;;;4.34;100.00
25722;BME280;13578;53.450;15.496;2023-04-27T06:06:49;99982.00;;;4.28;100.00
25722;BME280;13578;53.450;15.496;2023-04-27T06:09:49;99977.72;;;4.38;100.00
25722;BME280;13578;53.450;15.496;2023-04-27T06:12:50;99973.00;;;4.42;100.00
25722;BME280;13578;53.450;15.496;2023-04-27T06:15:51;99992.03;;;4.56;100.00
25722;BME280;13578;53.450;15.496;2023-04-27T06:18:51;99980.75;;;4.48;100.00
25722;BME280;13578;53.450;15.496;2023-04-27T06:21:53;99983.00;;;4.56;100.00
25722;BME280;13578;53.450;15.496;2023-04-27T06:24:54;99988.25;;;4.59;100.00
25722;BME280;13578;53.450;15.496;2023-04-27T06:27:55;99986.91;;;4.66;100.00
25722;BME280;13578;53.450;15.496;2023-04-27T06:30:56;99977.41;;;4.73;100.00
25722;BME280;13578;53.450;15.496;2023-04-27T06:33:56;99984.09;;;4.82;100.00
25722;BME280;13578;53.450;15.496;2023-04-27T06:36:57;99985.25;;;4.78;100.00
25722;BME280;13578;53.450;15.496;2023-04-27T06:39:57;99980.88;;;5.04;100.00
25722;BME280;13578;53.450;15.496;2023-04-27T06:42:58;99996.72;;;4.98;100.00
25722;BME280;13578;53.450;15.496;2023-04-27T06:45:59;99980.97;;;5.17;100.00
25722;BME280;13578;53.450;15.496;2023-04-27T06:49:00;99984.44;;;5.34;100.00
25722;BME280;13578;53.450;15.496;2023-04-27T06:52:01;99993.00;;;5.28;100.00
25722;BME280;13578;53.450;15.496;2023-04-27T06:55:02;99997.63;;;5.40;100.00
25722;BME280;13578;53.450;15.496;2023-04-27T06:58:02;99984.59;;;5.45;100.00
25722;BME280;13578;53.450;15.496;2023-04-27T07:01:03;99988.63;;;5.67;100.00
25722;BME280;13578;53.450;15.496;2023-04-27T07:04:04;99984.56;;;5.60;100.00
25722;BME280;13578;53.450;15.496;2023-04-27T07:07:05;99981.03;;;5.72;100.00
25722;BME280;13578;53.450;15.496;2023-04-27T07:10:07;99992.38;;;5.79;100.00
25722;BME280;13578;53.450;15.496;2023-04-27T07:13:07;99986.78;;;5.67;100.00
25722;BME280;13578;53.450;15.496;2023-04-27T07:16:08;99983.69;;;5.86;100.00
25722;BME280;13578;53.450;15.496;2023-04-27T07:19:09;99987.59;;;5.82;100.00
25722;BME280;13578;53.450;15.496;2023-04-27T07:22:10;100001.66;;;6.03;100.00
25722;BME280;13578;53.450;15.496;2023-04-27T07:25:11;99992.44;;;6.32;100.00
25722;BME280;13578;53.450;15.496;2023-04-27T07:28:11;99992.75;;;6.14;100.00
25722;BME280;13578;53.450;15.496;2023-04-27T07:31:12;99998.38;;;6.51;100.00
25722;BME280;13578;53.450;15.496;2023-04-27T07:34:13;99976.31;;;6.55;100.00
25722;BME280;13578;53.450;15.496;2023-04-27T07:37:15;99969.31;;;6.25;100.00
25722;BME280;13578;53.450;15.496;2023-04-27T07:40:16;99994.53;;;6.41;100.00
25722;BME280;13578;53.450;15.496;2023-04-27T07:43:17;99958.88;;;6.70;100.00
25722;BME280;13578;53.450;15.496;2023-04-27T07:46:19;99992.03;;;6.51;100.00
25722;BME280;13578;53.450;15.496;2023-04-27T07:49:20;99991.19;;;6.63;100.00
25722;BME280;13578;53.450;15.496;2023-04-27T07:52:21;100001.53;;;6.97;100.00
25722;BME280;13578;53.450;15.496;2023-04-27T07:55:22;99971.81;;;7.05;100.00
25722;BME280;13578;53.450;15.496;2023-04-27T07:58:23;99954.91;;;7.00;100.00
25722;BME280;13578;53.450;15.496;2023-04-27T08:01:23;99953.16;;;7.12;100.00
25722;BME280;13578;53.450;15.496;2023-04-27T08:04:24;99974.97;;;7.12;100.00
25722;BME280;13578;53.450;15.496;2023-04-27T08:07:26;99968.78;;;6.97;100.00
25722;BME280;13578;53.450;15.496;2023-04-27T08:10:26;99989.09;;;6.67;100.00
25722;BME280;13578;53.450;15.496;2023-04-27T08:13:27;99996.31;;;6.68;100.00
25722;BME280;13578;53.450;15.496;2023-04-27T08:16:28;99981.88;;;6.53;100.00
25722;BME280;13578;53.450;15.496;2023-04-27T08:19:28;99981.91;;;6.66;100.00
25722;BME280;13578;53.450;15.496;2023-04-27T08:22:29;99978.03;;;7.20;100.00
25722;BME280;13578;53.450;15.496;2023-04-27T08:25:30;99946.69;;;7.26;100.00
25722;BME280;13578;53.450;15.496;2023-04-27T08:28:31;99973.84;;;7.40;100.00
25722;BME280;13578;53.450;15.496;2023-04-27T08:31:32;99969.41;;;7.51;100.00
25722;BME280;13578;53.450;15.496;2023-04-27T08:34:32;99967.09;;;7.82;100.00
25722;BME280;13578;53.450;15.496;2023-04-27T08:37:33;99949.91;;;7.44;100.00
25722;BME280;13578;53.450;15.496;2023-04-27T08:40:34;99953.28;;;6.84;100.00
25722;BME280;13578;53.450;15.496;2023-04-27T08:43:34;99995.00;;;6.61;100.00
25722;BME280;13578;53.450;15.496;2023-04-27T08:46:36;99972.84;;;6.78;100.00
25722;BME280;13578;53.450;15.496;2023-04-27T08:49:37;99960.41;;;7.37;100.00
25722;BME280;13578;53.450;15.496;2023-04-27T08:52:38;99971.59;;;7.83;100.00
25722;BME280;13578;53.450;15.496;2023-04-27T08:55:38;99954.03;;;7.98;100.00
25722;BME280;13578;53.450;15.496;2023-04-27T08:58:39;99948.66;;;7.72;100.00
25722;BME280;13578;53.450;15.496;2023-04-27T09:01:47;99944.53;;;7.42;100.00
25722;BME280;13578;53.450;15.496;2023-04-27T09:04:48;99939.03;;;7.79;100.00
25722;BME280;13578;53.450;15.496;2023-04-27T09:11:01;99910.00;;;7.90;99.11
25722;BME280;13578;53.450;15.496;2023-04-27T09:14:16;99929.72;;;7.58;100.00
25722;BME280;13578;53.450;15.496;2023-04-27T09:17:23;99936.81;;;7.36;100.00
25722;BME280;13578;53.450;15.496;2023-04-27T09:20:24;99950.41;;;7.25;100.00
25722;BME280;13578;53.450;15.496;2023-04-27T09:26:27;99943.56;;;7.43;100.00
25722;BME280;13578;53.450;15.496;2023-04-27T09:29:35;99908.91;;;7.20;97.27
25722;BME280;13578;53.450;15.496;2023-04-27T09:32:35;99902.16;;;7.12;96.36
25722;BME280;13578;53.450;15.496;2023-04-27T09:35:36;99955.13;;;7.95;100.00
25722;BME280;13578;53.450;15.496;2023-04-27T09:38:37;99910.94;;;8.13;98.57
25722;BME280;13578;53.450;15.496;2023-04-27T09:41:38;99908.91;;;7.92;95.88
25722;BME280;13578;53.450;15.496;2023-04-27T09:44:38;99902.44;;;7.93;94.83
25722;BME280;13578;53.450;15.496;2023-04-27T09:47:39;99913.91;;;7.74;94.84
25722;BME280;13578;53.450;15.496;2023-04-27T09:50:42;99918.34;;;7.64;97.60
25722;BME280;13578;53.450;15.496;2023-04-27T09:53:51;99923.44;;;7.69;94.86
25722;BME280;13578;53.450;15.496;2023-04-27T09:57:01;99919.13;;;7.29;96.93
25722;BME280;13578;53.450;15.496;2023-04-27T10:00:22;99938.38;;;7.27;97.59
25722;BME280;13578;53.450;15.496;2023-04-27T10:07:02;99923.06;;;8.33;97.89
25722;BME280;13578;53.450;15.496;2023-04-27T10:10:04;99909.38;;;8.45;93.99
25722;BME280;13578;53.450;15.496;2023-04-27T10:13:05;99888.66;;;7.95;90.06
25722;BME280;13578;53.450;15.496;2023-04-27T10:16:15;99884.38;;;7.79;89.25
25722;BME280;13578;53.450;15.496;2023-04-27T10:19:16;99916.69;;;7.86;93.72
25722;BME280;13578;53.450;15.496;2023-04-27T10:22:17;99932.63;;;7.92;95.60
25722;BME280;13578;53.450;15.496;2023-04-27T10:28:24;99911.16;;;7.99;92.85
25722;BME280;13578;53.450;15.496;2023-04-27T10:31:28;99931.41;;;7.96;94.49
25722;BME280;13578;53.450;15.496;2023-04-27T10:34:33;99929.56;;;7.72;93.62
25722;BME280;13578;53.450;15.496;2023-04-27T10:37:38;99921.97;;;7.40;93.66
25722;BME280;13578;53.450;15.496;2023-04-27T10:40:43;99944.66;;;7.89;95.62
25722;BME280;13578;53.450;15.496;2023-04-27T10:43:44;99947.53;;;8.23;97.42
25722;BME280;13578;53.450;15.496;2023-04-27T10:46:49;99927.34;;;8.13;93.17
25722;BME280;13578;53.450;15.496;2023-04-27T10:49:53;99964.72;;;8.37;99.64
25722;BME280;13578;53.450;15.496;2023-04-27T10:52:53;99924.69;;;8.36;92.79
25722;BME280;13578;53.450;15.496;2023-04-27T10:55:59;99923.28;;;8.19;91.36
25722;BME280;13578;53.450;15.496;2023-04-27T10:59:04;99955.16;;;8.42;95.77
25722;BME280;13578;53.450;15.496;2023-04-27T11:02:05;99944.53;;;8.51;93.64
25722;BME280;13578;53.450;15.496;2023-04-27T11:05:19;99921.41;;;8.66;90.02
25722;BME280;13578;53.450;15.496;2023-04-27T11:08:21;99941.81;;;9.08;94.34
25722;BME280;13578;53.450;15.496;2023-04-27T11:11:22;99898.91;;;8.74;85.92
25722;BME280;13578;53.450;15.496;2023-04-27T11:14:23;99906.75;;;8.20;86.71
25722;BME280;13578;53.450;15.496;2023-04-27T11:17:31;99920.41;;;8.20;87.99
25722;BME280;13578;53.450;15.496;2023-04-27T11:20:31;99924.53;;;8.37;89.14
25722;BME280;13578;53.450;15.496;2023-04-27T11:23:32;99952.75;;;8.85;92.58
25722;BME280;13578;53.450;15.496;2023-04-27T11:26:37;99952.50;;;9.22;94.18
25722;BME280;13578;53.450;15.496;2023-04-27T11:29:38;99911.91;;;9.27;85.69
25722;BME280;13578;53.450;15.496;2023-04-27T11:32:38;99906.97;;;8.98;83.15
25722;BME280;13578;53.450;15.496;2023-04-27T11:35:39;99906.69;;;9.13;83.09
25722;BME280;13578;53.450;15.496;2023-04-27T11:38:41;99926.69;;;9.47;84.40
25722;BME280;13578;53.450;15.496;2023-04-27T11:41:42;99922.59;;;9.74;86.05
25722;BME280;13578;53.450;15.496;2023-04-27T11:45:11;99949.50;;;9.80;89.45
25722;BME280;13578;53.450;15.496;2023-04-27T11:48:14;99907.63;;;10.11;84.62
25722;BME280;13578;53.450;15.496;2023-04-27T11:51:15;99908.00;;;9.85;81.94
25722;BME280;13578;53.450;15.496;2023-04-27T11:54:16;99879.97;;;9.60;77.31
25722;BME280;13578;53.450;15.496;2023-04-27T11:57:17;99917.72;;;9.45;80.10
25722;BME280;13578;53.450;15.496;2023-04-27T12:00:18;99935.66;;;9.38;82.02
25722;BME280;13578;53.450;15.496;2023-04-27T12:03:19;99936.19;;;9.43;84.77
25722;BME280;13578;53.450;15.496;2023-04-27T12:06:25;99926.59;;;9.26;82.80
25722;BME280;13578;53.450;15.496;2023-04-27T12:09:25;99931.97;;;9.28;83.27
25722;BME280;13578;53.450;15.496;2023-04-27T12:12:27;99936.84;;;9.01;83.71
25722;BME280;13578;53.450;15.496;2023-04-27T12:15:28;99950.25;;;9.27;82.51
25722;BME280;13578;53.450;15.496;2023-04-27T12:18:28;99943.31;;;9.67;84.79
25722;BME280;13578;53.450;15.496;2023-04-27T12:21:29;99939.13;;;9.84;83.22
25722;BME280;13578;53.450;15.496;2023-04-27T12:24:31;99906.53;;;9.81;76.87
25722;BME280;13578;53.450;15.496;2023-04-27T12:27:32;99980.25;;;9.84;87.78
25722;BME280;13578;53.450;15.496;2023-04-27T12:30:33;99916.34;;;9.83;76.88
25722;BME280;13578;53.450;15.496;2023-04-27T12:33:34;99920.84;;;9.84;77.44
25722;BME280;13578;53.450;15.496;2023-04-27T12:36:35;99951.53;;;9.78;83.78
25722;BME280;13578;53.450;15.496;2023-04-27T12:39:36;99935.69;;;10.03;80.99
25722;BME280;13578;53.450;15.496;2023-04-27T12:42:36;99935.28;;;10.40;81.42
25722;BME280;13578;53.450;15.496;2023-04-27T12:45:37;99893.72;;;10.02;73.51
25722;BME280;13578;53.450;15.496;2023-04-27T12:48:37;99909.88;;;9.52;76.10
25722;BME280;13578;53.450;15.496;2023-04-27T12:51:38;99938.16;;;9.30;79.06
25722;BME280;13578;53.450;15.496;2023-04-27T12:54:39;99957.47;;;9.40;83.56
25722;BME280;13578;53.450;15.496;2023-04-27T12:57:40;99917.41;;;9.16;74.46
25722;BME280;13578;53.450;15.496;2023-04-27T13:00:41;99921.03;;;8.82;74.43
25722;BME280;13578;53.450;15.496;2023-04-27T13:03:46;99936.56;;;8.70;77.58
25722;BME280;13578;53.450;15.496;2023-04-27T13:06:47;99965.94;;;8.91;83.60
25722;BME280;13578;53.450;15.496;2023-04-27T13:09:47;99944.78;;;9.16;80.23
25722;BME280;13578;53.450;15.496;2023-04-27T13:12:48;99950.75;;;9.21;80.48
25722;BME280;13578;53.450;15.496;2023-04-27T13:15:49;99949.13;;;9.41;81.05
25722;BME280;13578;53.450;15.496;2023-04-27T13:18:50;99928.63;;;9.24;76.86
25722;BME280;13578;53.450;15.496;2023-04-27T13:21:52;99962.72;;;9.31;79.81
25722;BME280;13578;53.450;15.496;2023-04-27T13:24:53;99937.22;;;9.63;77.97
25722;BME280;13578;53.450;15.496;2023-04-27T13:27:53;99918.66;;;9.99;74.05
25722;BME280;13578;53.450;15.496;2023-04-27T13:30:57;99921.19;;;10.45;73.29
25722;BME280;13578;53.450;15.496;2023-04-27T13:33:57;99906.56;;;10.23;68.93
25722;BME280;13578;53.450;15.496;2023-04-27T13:36:58;99906.16;;;10.28;70.46
25722;BME280;13578;53.450;15.496;2023-04-27T13:39:59;99922.81;;;10.15;70.90
25722;BME280;13578;53.450;15.496;2023-04-27T13:43:00;99975.00;;;10.25;79.22
25722;BME280;13578;53.450;15.496;2023-04-27T13:46:01;99977.16;;;10.85;79.86
25722;BME280;13578;53.450;15.496;2023-04-27T13:49:01;99920.09;;;10.88;71.63
25722;BME280;13578;53.450;15.496;2023-04-27T13:52:02;99919.81;;;10.60;69.63
25722;BME280;13578;53.450;15.496;2023-04-27T13:55:04;99928.94;;;10.92;71.81
25722;BME280;13578;53.450;15.496;2023-04-27T13:58:05;99956.63;;;11.10;76.33
25722;BME280;13578;53.450;15.496;2023-04-27T14:01:06;99913.94;;;10.96;69.24
25722;BME280;13578;53.450;15.496;2023-04-27T14:04:07;99910.59;;;10.61;69.92
25722;BME280;13578;53.450;15.496;2023-04-27T14:07:09;99948.13;;;11.13;73.12
25722;BME280;13578;53.450;15.496;2023-04-27T14:10:09;99922.59;;;10.91;70.97
25722;BME280;13578;53.450;15.496;2023-04-27T14:13:11;99933.91;;;10.46;71.28
25722;BME280;13578;53.450;15.496;2023-04-27T14:16:11;99929.19;;;10.15;71.16
25722;BME280;13578;53.450;15.496;2023-04-27T14:19:12;99974.59;;;10.41;76.25
25722;BME280;13578;53.450;15.496;2023-04-27T14:22:15;99943.75;;;10.16;72.72
25722;BME280;13578;53.450;15.496;2023-04-27T14:25:15;99966.47;;;10.07;77.76
25722;BME280;13578;53.450;15.496;2023-04-27T14:28:16;99958.66;;;10.02;73.94
25722;BME280;13578;53.450;15.496;2023-04-27T14:31:17;99952.13;;;9.82;73.68
25722;BME280;13578;53.450;15.496;2023-04-27T14:34:17;99940.75;;;9.43;70.60
25722;BME280;13578;53.450;15.496;2023-04-27T14:37:18;99973.13;;;9.49;74.78
25722;BME280;13578;53.450;15.496;2023-04-27T14:40:19;99985.06;;;9.48;75.78
25722;BME280;13578;53.450;15.496;2023-04-27T14:43:19;99956.44;;;9.41;73.62
25722;BME280;13578;53.450;15.496;2023-04-27T14:46:20;99971.03;;;9.85;75.30
25722;BME280;13578;53.450;15.496;2023-04-27T14:49:21;99949.31;;;9.61;71.53
25722;BME280;13578;53.450;15.496;2023-04-27T14:52:21;99998.19;;;9.88;79.03
25722;BME280;13578;53.450;15.496;2023-04-27T14:55:22;99959.59;;;10.12;71.21
25722;BME280;13578;53.450;15.496;2023-04-27T14:58:23;99983.22;;;10.25;75.48
25722;BME280;13578;53.450;15.496;2023-04-27T15:01:25;99963.22;;;10.34;70.92
25722;BME280;13578;53.450;15.496;2023-04-27T15:04:25;99967.13;;;10.31;72.09
25722;BME280;13578;53.450;15.496;2023-04-27T15:07:26;99972.66;;;10.20;72.66
25722;BME280;13578;53.450;15.496;2023-04-27T15:10:27;99994.69;;;9.97;75.55
25722;BME280;13578;53.450;15.496;2023-04-27T15:13:27;99981.53;;;9.80;75.98
25722;BME280;13578;53.450;15.496;2023-04-27T15:16:28;99969.19;;;9.30;73.42
25722;BME280;13578;53.450;15.496;2023-04-27T15:19:28;99992.81;;;8.97;76.52
25722;BME280;13578;53.450;15.496;2023-04-27T15:22:30;99988.59;;;9.04;75.83
25722;BME280;13578;53.450;15.496;2023-04-27T15:25:31;99984.25;;;9.13;74.51
25722;BME280;13578;53.450;15.496;2023-04-27T15:28:31;99975.66;;;8.95;73.69
25722;BME280;13578;53.450;15.496;2023-04-27T15:31:33;99988.59;;;8.93;74.95
25722;BME280;13578;53.450;15.496;2023-04-27T15:34:33;99996.41;;;8.86;76.02
25722;BME280;13578;53.450;15.496;2023-04-27T15:37:35;100016.09;;;8.92;77.33
25722;BME280;13578;53.450;15.496;2023-04-27T15:40:36;99981.47;;;8.79;72.12
25722;BME280;13578;53.450;15.496;2023-04-27T15:43:37;99992.81;;;8.86;75.53
25722;BME280;13578;53.450;15.496;2023-04-27T15:46:37;99989.84;;;9.00;74.93
25722;BME280;13578;53.450;15.496;2023-04-27T15:49:38;100009.78;;;9.25;78.10
25722;BME280;13578;53.450;15.496;2023-04-27T15:52:39;99993.28;;;9.48;75.24
25722;BME280;13578;53.450;15.496;2023-04-27T15:55:39;99951.09;;;9.39;70.03
25722;BME280;13578;53.450;15.496;2023-04-27T15:58:40;99950.81;;;9.53;69.07
25722;BME280;13578;53.450;15.496;2023-04-27T16:01:41;99972.00;;;9.63;73.02
25722;BME280;13578;53.450;15.496;2023-04-27T16:04:41;99968.91;;;9.45;72.15